createdAt,value
2018-07-03T00:01:10.865Z,15.60
2018-07-03T00:03:41.119Z,15.60
2018-07-03T00:06:10.045Z,15.50
2018-07-03T00:08:39.004Z,15.50
2018-07-03T00:11:08.151Z,15.40
2018-07-03T00:13:37.096Z,15.40
2018-07-03T00:16:06.090Z,15.30
2018-07-03T00:18:35.244Z,15.20
2018-07-03T00:23:32.825Z,15.10
2018-07-03T00:26:01.811Z,15.00
2018-07-03T00:28:31.241Z,15.00
2018-07-03T00:31:00.191Z,14.90
2018-07-03T00:33:29.144Z,14.90
2018-07-03T00:35:58.109Z,14.80
2018-07-03T00:38:27.219Z,14.70
2018-07-03T00:40:56.250Z,14.70
2018-07-03T00:43:25.486Z,14.60
2018-07-03T00:45:54.419Z,14.60
2018-07-03T00:48:23.383Z,14.50
2018-07-03T00:50:52.410Z,14.50
2018-07-03T00:53:21.391Z,14.40
2018-07-03T00:55:50.374Z,14.40
2018-07-03T00:58:19.466Z,14.30
2018-07-03T01:00:48.445Z,14.30
2018-07-03T01:03:17.445Z,14.20
2018-07-03T01:05:46.414Z,14.20
2018-07-03T01:08:15.358Z,14.10
2018-07-03T01:10:44.370Z,14.10
2018-07-03T01:13:13.297Z,14.00
2018-07-03T01:15:42.757Z,14.00
2018-07-03T01:18:11.698Z,14.00
2018-07-03T01:20:40.631Z,13.90
2018-07-03T01:23:09.646Z,13.90
2018-07-03T01:25:38.601Z,13.80
2018-07-03T01:28:07.738Z,13.80
2018-07-03T01:30:36.725Z,13.80
2018-07-03T01:33:05.830Z,13.80
2018-07-03T01:35:34.799Z,13.70
2018-07-03T01:38:03.792Z,13.70
2018-07-03T01:40:32.776Z,13.70
2018-07-03T01:43:01.722Z,13.70
2018-07-03T01:45:30.672Z,13.70
2018-07-03T01:50:28.277Z,13.70
2018-07-03T01:52:57.269Z,13.60
2018-07-03T01:55:26.349Z,13.60
2018-07-03T01:57:55.490Z,13.60
2018-07-03T02:00:24.472Z,13.60
2018-07-03T02:02:53.669Z,13.50
2018-07-03T02:05:22.893Z,13.40
2018-07-03T02:07:53.193Z,13.40
2018-07-03T02:10:22.245Z,13.40
2018-07-03T02:12:51.607Z,13.40
2018-07-03T02:15:20.913Z,13.30
2018-07-03T02:17:49.942Z,13.30
2018-07-03T02:20:18.943Z,13.30
2018-07-03T02:22:47.982Z,13.30
2018-07-03T02:25:16.999Z,13.30
2018-07-03T02:27:45.909Z,13.10
2018-07-03T02:30:14.887Z,13.10
2018-07-03T02:32:43.881Z,13.00
2018-07-03T02:35:13.074Z,13.00
2018-07-03T02:37:42.067Z,13.00
2018-07-03T02:40:10.991Z,12.90
2018-07-03T02:42:40.027Z,12.90
2018-07-03T02:45:08.986Z,12.90
2018-07-03T02:47:37.957Z,12.90
2018-07-03T02:50:07.167Z,12.90
2018-07-03T02:52:36.585Z,12.90
2018-07-03T02:55:05.725Z,12.80
2018-07-03T02:57:34.826Z,12.80
2018-07-03T03:00:04.798Z,12.70
2018-07-03T03:02:33.775Z,12.70
2018-07-03T03:05:02.788Z,12.70
2018-07-03T03:07:31.852Z,12.60
2018-07-03T03:10:00.804Z,12.60
2018-07-03T03:12:29.806Z,12.60
2018-07-03T03:14:58.792Z,12.50
2018-07-03T03:17:27.894Z,12.60
2018-07-03T03:19:56.942Z,12.50
2018-07-03T03:22:25.906Z,12.50
2018-07-03T03:24:54.881Z,12.60
2018-07-03T03:27:23.883Z,12.50
2018-07-03T03:29:52.848Z,12.50
2018-07-03T03:32:21.815Z,12.60
2018-07-03T03:34:50.911Z,12.60
2018-07-03T03:37:19.882Z,12.60
2018-07-03T03:39:48.843Z,12.60
2018-07-03T03:42:17.822Z,12.60
2018-07-03T03:44:47.004Z,12.70
2018-07-03T03:47:15.956Z,12.70
2018-07-03T03:49:44.980Z,12.70
2018-07-03T03:52:14.167Z,12.70
2018-07-03T03:54:43.165Z,12.70
2018-07-03T03:57:12.225Z,12.70
2018-07-03T03:59:41.363Z,12.70
2018-07-03T04:02:10.366Z,12.80
2018-07-03T04:04:39.269Z,12.80
2018-07-03T04:07:08.785Z,12.80
2018-07-03T04:09:37.809Z,12.70
2018-07-03T04:12:06.792Z,12.70
2018-07-03T04:14:35.737Z,12.70
2018-07-03T04:17:04.717Z,12.70
2018-07-03T04:19:33.893Z,12.70
2018-07-03T04:22:02.883Z,12.80
2018-07-03T04:24:31.837Z,12.80
2018-07-03T04:27:00.784Z,12.90
2018-07-03T04:29:29.781Z,12.90
2018-07-03T04:31:59.049Z,12.90
2018-07-03T04:34:28.046Z,13.00
2018-07-03T04:36:57.082Z,13.00
2018-07-03T04:39:26.438Z,13.20
2018-07-03T04:41:55.447Z,13.20
2018-07-03T04:44:24.626Z,13.30
2018-07-03T04:46:53.734Z,13.30
2018-07-03T04:49:22.650Z,13.50
2018-07-03T04:51:51.848Z,13.90
2018-07-03T04:54:20.849Z,14.50
2018-07-03T04:56:49.781Z,15.20
2018-07-03T04:59:18.809Z,15.80
2018-07-03T05:01:48.055Z,16.40
2018-07-03T05:04:17.029Z,16.90
2018-07-03T05:06:46.142Z,17.20
2018-07-03T05:09:15.454Z,17.60
2018-07-03T05:11:44.635Z,17.90
2018-07-03T05:14:13.600Z,18.20
2018-07-03T05:16:42.643Z,18.30
2018-07-03T05:19:11.809Z,18.50
2018-07-03T05:21:40.815Z,18.50
2018-07-03T05:24:09.833Z,18.50
2018-07-03T05:26:38.843Z,18.50
2018-07-03T05:29:07.789Z,18.60
2018-07-03T05:31:36.866Z,18.80
2018-07-03T05:34:07.124Z,18.90
2018-07-03T05:39:07.476Z,19.10
2018-07-03T05:41:36.584Z,19.10
2018-07-03T05:44:05.534Z,19.30
2018-07-03T05:46:34.630Z,19.40
2018-07-03T05:51:32.245Z,19.80
2018-07-03T05:54:01.237Z,20.00
2018-07-03T05:56:30.241Z,20.10
2018-07-03T05:58:59.263Z,20.40
2018-07-03T06:01:28.213Z,20.60
2018-07-03T06:03:57.218Z,20.70
2018-07-03T06:06:26.154Z,20.70
2018-07-03T06:08:55.165Z,20.90
2018-07-03T06:11:24.178Z,21.20
2018-07-03T06:13:53.141Z,21.50
2018-07-03T06:16:22.113Z,21.60
2018-07-03T06:21:19.817Z,21.70
2018-07-03T06:23:48.761Z,21.80
2018-07-03T06:26:17.731Z,22.00
2018-07-03T06:28:46.771Z,22.40
2018-07-03T06:31:15.708Z,22.80
2018-07-03T06:33:44.663Z,23.10
2018-07-03T06:36:13.949Z,23.20
2018-07-03T06:41:11.677Z,23.50
2018-07-03T06:43:40.500Z,23.50
2018-07-03T06:48:38.238Z,23.70
2018-07-03T06:51:07.350Z,23.80
2018-07-03T06:53:36.349Z,23.80
2018-07-03T06:56:05.449Z,23.80
2018-07-03T06:58:34.457Z,23.70
2018-07-03T07:01:03.636Z,24.00
2018-07-03T07:03:32.586Z,24.30
2018-07-03T07:06:01.541Z,24.40
2018-07-03T07:10:59.237Z,24.60
2018-07-03T07:13:28.209Z,24.60
2018-07-03T07:15:57.145Z,24.80
2018-07-03T07:18:26.133Z,25.20
2018-07-03T07:20:55.420Z,25.30
2018-07-03T07:23:24.439Z,25.50
2018-07-03T07:25:53.435Z,25.40
2018-07-03T07:28:22.658Z,25.60
2018-07-03T07:30:51.654Z,25.90
2018-07-03T07:33:20.749Z,25.80
2018-07-03T07:35:49.990Z,26.00
2018-07-03T07:38:18.939Z,26.20
2018-07-03T07:43:16.490Z,26.10
2018-07-03T07:45:45.492Z,26.40
2018-07-03T07:48:14.419Z,26.50
2018-07-03T07:50:43.399Z,26.70
2018-07-03T07:53:12.682Z,27.10
2018-07-03T07:55:41.677Z,27.40
2018-07-03T07:58:10.635Z,27.20
2018-07-03T08:00:39.627Z,27.30
2018-07-03T08:03:08.587Z,27.30
2018-07-03T08:05:37.557Z,27.60
2018-07-03T08:08:06.677Z,27.40
2018-07-03T08:10:35.645Z,27.30
2018-07-03T08:13:04.658Z,27.60
2018-07-03T08:15:33.762Z,27.70
2018-07-03T08:18:02.726Z,27.90
2018-07-03T08:20:31.728Z,28.20
2018-07-03T08:23:00.683Z,28.30
2018-07-03T08:25:29.704Z,28.30
2018-07-03T08:27:58.727Z,28.30
2018-07-03T08:30:27.694Z,28.30
2018-07-03T08:32:56.815Z,28.40
2018-07-03T08:35:25.789Z,28.50
2018-07-03T08:37:54.760Z,28.60
2018-07-03T08:40:23.689Z,28.90
2018-07-03T08:42:52.738Z,29.20
2018-07-03T08:45:21.657Z,29.30
2018-07-03T08:47:50.676Z,29.60
2018-07-03T08:50:19.649Z,29.60
2018-07-03T08:52:48.757Z,29.50
2018-07-03T08:55:17.746Z,29.50
2018-07-03T08:57:46.761Z,29.50
2018-07-03T09:00:15.718Z,29.80
2018-07-03T09:02:44.688Z,29.90
2018-07-03T09:05:13.783Z,29.80
2018-07-03T09:07:42.751Z,29.60
2018-07-03T09:10:11.706Z,29.60
2018-07-03T09:12:40.854Z,29.90
2018-07-03T09:15:10.151Z,30.10
2018-07-03T09:17:39.109Z,30.30
2018-07-03T09:20:08.151Z,30.60
2018-07-03T09:22:37.102Z,30.90
2018-07-03T09:25:06.209Z,31.20
2018-07-03T09:27:35.159Z,31.20
2018-07-03T09:30:04.794Z,31.30
2018-07-03T09:32:33.771Z,31.60
2018-07-03T09:35:02.758Z,31.60
2018-07-03T09:37:31.749Z,31.60
2018-07-03T09:40:00.723Z,31.60
2018-07-03T09:42:29.773Z,31.50
2018-07-03T09:44:58.720Z,31.50
2018-07-03T09:47:27.654Z,31.50
2018-07-03T09:49:56.872Z,31.80
2018-07-03T09:52:25.886Z,32.10
2018-07-03T09:55:00.661Z,32.50
2018-07-03T09:57:29.600Z,32.60
2018-07-03T09:59:58.577Z,32.90
2018-07-03T10:02:27.564Z,33.00
2018-07-03T10:04:56.599Z,32.90
2018-07-03T10:07:25.599Z,32.90
2018-07-03T10:09:54.587Z,32.90
2018-07-03T10:12:23.544Z,32.50
2018-07-03T10:14:52.534Z,32.10
2018-07-03T10:17:21.533Z,32.00
2018-07-03T10:19:50.493Z,31.90
2018-07-03T10:22:19.529Z,32.20
2018-07-03T10:24:48.613Z,32.60
2018-07-03T10:27:17.543Z,32.90
2018-07-03T10:29:46.565Z,33.30
2018-07-03T10:32:15.520Z,33.40
2018-07-03T10:34:44.518Z,33.70
2018-07-03T10:37:13.490Z,33.70
2018-07-03T10:39:42.453Z,33.60
2018-07-03T10:42:11.465Z,33.60
2018-07-03T10:44:40.435Z,33.50
2018-07-03T10:47:09.373Z,33.60
2018-07-03T10:49:38.349Z,33.70
2018-07-03T10:52:07.494Z,33.40
2018-07-03T10:54:36.449Z,33.20
2018-07-03T10:57:05.688Z,33.10
2018-07-03T10:59:34.662Z,32.90
2018-07-03T11:02:04.314Z,32.80
2018-07-03T11:07:01.965Z,33.20
2018-07-03T11:09:30.920Z,32.80
2018-07-03T11:11:59.865Z,32.50
2018-07-03T11:14:28.857Z,32.10
2018-07-03T11:16:58.586Z,32.40
2018-07-03T11:19:27.593Z,32.80
2018-07-03T11:21:56.555Z,33.30
2018-07-03T11:24:25.545Z,33.60
2018-07-03T11:26:54.605Z,33.80
2018-07-03T11:29:23.650Z,34.10
2018-07-03T11:31:52.621Z,34.30
2018-07-03T11:34:21.550Z,33.90
2018-07-03T11:36:50.532Z,34.00
2018-07-03T11:39:19.503Z,34.10
2018-07-03T11:41:48.921Z,34.30
2018-07-03T11:44:17.980Z,34.70
2018-07-03T11:46:47.062Z,34.50
2018-07-03T11:51:44.853Z,34.80
2018-07-03T11:54:13.790Z,35.00
2018-07-03T11:56:43.978Z,35.40
2018-07-03T11:59:13.127Z,35.50
2018-07-03T12:01:42.124Z,35.40
2018-07-03T12:04:11.099Z,35.50
2018-07-03T12:06:40.090Z,35.70
2018-07-03T12:09:10.133Z,35.90
2018-07-03T12:11:39.103Z,36.20
2018-07-03T12:14:09.127Z,36.00
2018-07-03T12:16:38.097Z,36.00
2018-07-03T12:19:07.071Z,36.00
2018-07-03T12:21:36.005Z,35.70
2018-07-03T12:24:04.980Z,35.20
2018-07-03T12:26:33.963Z,34.80
2018-07-03T12:29:03.095Z,34.40
2018-07-03T12:31:32.115Z,34.50
2018-07-03T12:34:01.184Z,34.70
2018-07-03T12:38:58.877Z,35.10
2018-07-03T12:41:27.944Z,34.90
2018-07-03T12:43:56.971Z,34.70
2018-07-03T12:46:26.117Z,34.70
2018-07-03T12:48:55.102Z,34.50
2018-07-03T12:53:52.801Z,33.70
2018-07-03T12:56:22.832Z,33.80
2018-07-03T13:01:21.252Z,34.30
2018-07-03T13:03:50.188Z,34.60
2018-07-03T13:06:19.165Z,35.00
2018-07-03T13:08:48.150Z,35.10
2018-07-03T13:13:46.583Z,35.20
2018-07-03T13:16:16.417Z,35.10
2018-07-03T13:18:45.403Z,35.30
2018-07-03T13:21:14.405Z,35.50
2018-07-03T13:23:43.397Z,35.70
2018-07-03T13:26:12.395Z,35.70
2018-07-03T13:28:41.393Z,35.60
2018-07-03T13:31:10.417Z,35.40
2018-07-03T13:33:39.450Z,35.60
2018-07-03T13:36:08.697Z,35.40
2018-07-03T13:38:37.729Z,35.50
2018-07-03T13:41:07.170Z,35.30
2018-07-03T13:43:36.201Z,35.30
2018-07-03T13:46:05.274Z,35.60
2018-07-03T13:48:34.517Z,35.30
2018-07-03T13:51:03.564Z,35.30
2018-07-03T13:53:32.697Z,35.50
2018-07-03T13:56:01.896Z,35.20
2018-07-03T13:58:31.083Z,35.20
2018-07-03T14:01:00.015Z,35.20
2018-07-03T14:03:29.294Z,35.10
2018-07-03T14:05:58.413Z,34.80
2018-07-03T14:08:28.070Z,34.70
2018-07-03T14:10:57.085Z,34.70
2018-07-03T14:13:26.139Z,34.40
2018-07-03T14:15:55.083Z,34.50
2018-07-03T14:18:25.499Z,34.60
2018-07-03T14:20:56.469Z,34.50
2018-07-03T14:23:26.581Z,34.50
2018-07-03T14:25:55.523Z,34.20
2018-07-03T14:28:24.520Z,34.40
2018-07-03T14:30:53.454Z,34.50
2018-07-03T14:33:22.469Z,34.60
2018-07-03T14:35:51.432Z,34.80
2018-07-03T14:38:20.462Z,34.60
2018-07-03T14:40:49.458Z,34.60
2018-07-03T14:43:18.415Z,34.70
2018-07-03T14:45:47.480Z,34.80
2018-07-03T14:48:16.429Z,34.70
2018-07-03T14:50:45.453Z,34.60
2018-07-03T14:53:15.159Z,34.70
2018-07-03T14:55:44.306Z,34.80
2018-07-03T14:58:13.283Z,34.90
2018-07-03T15:00:42.266Z,35.10
2018-07-03T15:03:11.229Z,34.80
2018-07-03T15:05:40.182Z,34.60
2018-07-03T15:08:09.365Z,34.50
2018-07-03T15:10:38.296Z,34.50
2018-07-03T15:13:07.245Z,34.50
2018-07-03T15:15:36.212Z,34.50
2018-07-03T15:18:05.265Z,34.50
2018-07-03T15:20:34.208Z,34.40
2018-07-03T15:23:03.125Z,34.40
2018-07-03T15:25:32.097Z,34.30
2018-07-03T15:28:01.061Z,34.20
2018-07-03T15:30:30.025Z,34.30
2018-07-03T15:32:59.071Z,34.20
2018-07-03T15:35:28.040Z,34.00
2018-07-03T15:37:57.076Z,34.10
2018-07-03T15:40:26.036Z,33.90
2018-07-03T15:45:23.674Z,33.60
2018-07-03T15:47:52.609Z,33.60
2018-07-03T15:50:21.590Z,33.60
2018-07-03T15:55:19.269Z,33.30
2018-07-03T15:57:48.225Z,33.30
2018-07-03T16:00:17.188Z,33.40
2018-07-03T16:02:57.758Z,33.60
2018-07-03T16:05:38.496Z,33.50
2018-07-03T16:08:45.182Z,33.20
2018-07-03T16:11:14.310Z,33.00
2018-07-03T16:13:43.433Z,33.10
2018-07-03T16:16:12.441Z,33.10
2018-07-03T16:18:41.396Z,33.00
2018-07-03T16:21:10.388Z,33.10
2018-07-03T16:23:39.431Z,33.10
2018-07-03T16:26:08.423Z,33.10
2018-07-03T16:28:37.482Z,33.10
2018-07-03T16:31:06.543Z,33.00
2018-07-03T16:33:37.615Z,33.10
2018-07-03T16:36:06.662Z,32.90
2018-07-03T16:38:35.648Z,32.90
2018-07-03T16:41:04.617Z,32.80
2018-07-03T16:43:33.569Z,32.70
2018-07-03T16:46:02.533Z,32.60
2018-07-03T16:48:31.640Z,32.70
2018-07-03T16:51:00.626Z,32.60
2018-07-03T16:53:29.566Z,32.50
2018-07-03T16:55:58.602Z,32.30
2018-07-03T16:58:27.656Z,32.10
2018-07-03T17:00:56.716Z,32.10
2018-07-03T17:03:26.051Z,31.90
2018-07-03T17:05:55.013Z,32.00
2018-07-03T17:08:23.957Z,31.90
2018-07-03T17:10:52.893Z,31.80
2018-07-03T17:13:22.075Z,31.90
2018-07-03T17:15:51.149Z,31.90
2018-07-03T17:18:20.459Z,31.70
2018-07-03T17:25:48.345Z,31.80
2018-07-03T17:31:10.157Z,31.70
2018-07-03T17:33:39.929Z,31.70
2018-07-03T17:36:09.767Z,31.60
2018-07-03T17:42:17.068Z,31.40
2018-07-03T17:45:55.795Z,31.50
2018-07-03T17:48:24.945Z,31.50
2018-07-03T17:50:53.919Z,31.40
2018-07-03T17:53:22.920Z,31.20
2018-07-03T17:55:51.949Z,31.10
2018-07-03T17:58:21.000Z,30.90
2018-07-03T18:00:50.021Z,30.80
2018-07-03T18:03:19.072Z,30.70
2018-07-03T18:05:48.167Z,30.70
2018-07-03T18:08:17.225Z,30.70
2018-07-03T18:10:46.174Z,30.80
2018-07-03T18:13:15.211Z,30.80
2018-07-03T18:15:44.141Z,30.70
2018-07-03T18:18:13.098Z,30.60
2018-07-03T18:20:42.122Z,30.40
2018-07-03T18:23:11.245Z,30.50
2018-07-03T18:25:40.218Z,30.60
2018-07-03T18:28:09.506Z,30.60
2018-07-03T18:30:38.529Z,30.40
2018-07-03T18:33:07.574Z,30.50
2018-07-03T18:35:36.985Z,30.60
2018-07-03T18:38:05.999Z,30.80
2018-07-03T18:40:34.930Z,30.70
2018-07-03T18:43:04.274Z,30.80
2018-07-03T18:45:33.266Z,30.70
2018-07-03T18:48:02.328Z,30.50
2018-07-03T18:50:31.249Z,30.40
2018-07-03T18:53:00.309Z,30.20
2018-07-03T18:55:29.368Z,29.90
2018-07-03T18:57:58.375Z,29.70
2018-07-03T19:00:27.451Z,29.50
2018-07-03T19:02:56.331Z,29.20
2018-07-03T19:05:26.431Z,29.10
2018-07-03T19:10:24.032Z,28.60
2018-07-03T19:12:53.034Z,28.30
2018-07-03T19:15:22.067Z,28.20
2018-07-03T19:17:51.012Z,28.00
2018-07-03T19:20:19.981Z,27.80
2018-07-03T19:22:49.153Z,27.60
2018-07-03T19:25:18.253Z,27.40
2018-07-03T19:27:47.292Z,27.20
2018-07-03T19:30:16.241Z,26.90
2018-07-03T19:32:45.315Z,26.80
2018-07-03T19:35:14.404Z,26.50
2018-07-03T19:37:43.342Z,26.40
2018-07-03T19:40:12.302Z,26.10
2018-07-03T19:43:25.464Z,25.90
2018-07-03T19:45:54.989Z,25.80
2018-07-03T19:48:23.990Z,25.60
2018-07-03T19:50:53.591Z,25.40
2018-07-03T19:53:22.589Z,25.20
2018-07-03T19:55:52.813Z,25.10
2018-07-03T19:58:22.115Z,24.80
2018-07-03T20:00:52.187Z,24.60
2018-07-03T20:03:21.283Z,24.50
2018-07-03T20:05:50.311Z,24.40
2018-07-03T20:08:19.577Z,24.30
2018-07-03T20:10:48.747Z,24.20
2018-07-03T20:13:18.487Z,24.10
2018-07-03T20:15:47.467Z,24.00
2018-07-03T20:18:16.904Z,23.90
2018-07-03T20:20:45.976Z,23.80
2018-07-03T20:23:16.167Z,23.70
2018-07-03T20:25:45.262Z,23.50
2018-07-03T20:28:14.594Z,23.40
2018-07-03T20:30:43.726Z,23.30
2018-07-03T20:33:12.860Z,23.10
2018-07-03T20:35:42.536Z,23.00
2018-07-03T20:38:12.761Z,22.90
2018-07-03T20:40:56.744Z,22.80
2018-07-03T20:43:26.687Z,22.70
2018-07-03T20:45:55.808Z,22.60
2018-07-03T20:48:25.559Z,22.50
2018-07-03T20:50:54.639Z,22.40
2018-07-03T20:53:23.709Z,22.30
2018-07-03T20:58:21.803Z,22.10
2018-07-03T21:00:50.850Z,22.00
2018-07-03T21:03:19.911Z,22.00
2018-07-03T21:05:49.985Z,21.90
2018-07-03T21:08:25.397Z,21.90
2018-07-03T21:10:54.438Z,21.90
2018-07-03T21:13:23.544Z,21.80
2018-07-03T21:15:52.471Z,21.70
2018-07-03T21:18:21.445Z,21.60
2018-07-03T21:20:50.537Z,21.60
2018-07-03T21:23:19.693Z,21.60
2018-07-03T21:25:48.668Z,21.50
2018-07-03T21:28:17.960Z,21.40
2018-07-03T21:30:46.934Z,21.40
2018-07-03T21:33:15.961Z,21.30
2018-07-03T21:35:45.419Z,21.30
2018-07-03T21:38:14.464Z,21.20
2018-07-03T21:43:12.754Z,21.10
2018-07-03T21:45:41.815Z,21.00
2018-07-03T21:48:10.826Z,20.90
2018-07-03T21:50:39.792Z,20.90
2018-07-03T21:53:09.168Z,20.80
2018-07-03T21:55:38.215Z,20.70
2018-07-03T21:58:07.236Z,20.70
2018-07-03T22:00:40.579Z,20.60
2018-07-03T22:03:10.688Z,20.50
2018-07-03T22:05:40.382Z,20.40
2018-07-03T22:08:09.413Z,20.40
2018-07-03T22:10:38.397Z,20.20
2018-07-03T22:13:07.432Z,20.20
2018-07-03T22:15:36.561Z,20.20
2018-07-03T22:18:05.815Z,20.10
2018-07-03T22:20:34.880Z,20.00
2018-07-03T22:23:03.810Z,20.00
2018-07-03T22:25:33.769Z,19.90
2018-07-03T22:28:02.713Z,19.80
2018-07-03T22:30:31.659Z,19.80
2018-07-03T22:33:00.770Z,19.70
2018-07-03T22:35:29.725Z,19.70
2018-07-03T22:37:58.665Z,19.60
2018-07-03T22:40:27.600Z,19.50
2018-07-03T22:42:56.617Z,19.40
2018-07-03T22:45:25.555Z,19.40
2018-07-03T22:47:54.629Z,19.40
2018-07-03T22:50:23.592Z,19.30
2018-07-03T22:52:53.956Z,19.20
2018-07-03T22:55:22.894Z,19.20
2018-07-03T22:57:51.850Z,19.10
2018-07-03T23:00:20.951Z,19.00
2018-07-03T23:02:49.905Z,19.00
2018-07-03T23:05:18.910Z,18.90
2018-07-03T23:07:47.925Z,18.80
2018-07-03T23:10:16.906Z,18.80
2018-07-03T23:12:45.884Z,18.70
2018-07-03T23:15:14.869Z,18.70
2018-07-03T23:17:43.840Z,18.60
2018-07-03T23:20:12.777Z,18.50
2018-07-03T23:22:41.748Z,18.50
2018-07-03T23:25:10.695Z,18.50
2018-07-03T23:27:39.645Z,18.40
2018-07-03T23:30:08.672Z,18.40
2018-07-03T23:32:37.636Z,18.30
2018-07-03T23:35:06.649Z,18.30
2018-07-03T23:37:35.593Z,18.20
2018-07-03T23:40:05.789Z,18.20
2018-07-03T23:42:34.733Z,18.10
2018-07-03T23:45:03.803Z,18.00
2018-07-03T23:47:44.404Z,18.00
2018-07-03T23:50:24.958Z,18.00
2018-07-03T23:53:05.205Z,17.90
2018-07-03T23:55:45.534Z,17.90
2018-07-03T23:58:25.892Z,17.80
